Time;durP1;ratioP1;P1;durP2;ratioP2;P2;SDS_P1;SDS_P2;PMS_P1;PMS_P2;Temp;Humidity;BMP_temperature;BMP_pressure;BME280_temperature;BME280_humidity;BME280_pressure;Samples;Min_cycle;Max_cycle;Signal;HPM_P1;HPM_P2
2023/09/26 00:01:17;;;;;;;12.93;4.15;;;;;;;22.63;100.00;100706.22;20789911;28;20509;-70
2023/09/26 00:11:42;;;;;;;15.18;4.90;;;;;;;22.56;100.00;100700.19;20798334;28;20050;-70
2023/09/26 00:22:04;;;;;;;15.25;4.80;;;;;;;22.54;100.00;100698.47;20823531;28;20061;-69
2023/09/26 00:32:30;;;;;;;16.90;4.50;;;;;;;22.41;100.00;100687.25;20807848;28;20041;-70
2023/09/26 00:42:52;;;;;;;9.95;4.63;;;;;;;22.29;100.00;100684.09;20825706;28;20058;-69
2023/09/26 00:53:17;;;;;;;12.32;4.40;;;;;;;22.14;100.00;100689.06;20811793;28;20057;-69
2023/09/26 01:03:40;;;;;;;17.42;4.70;;;;;;;22.04;100.00;100689.41;20801090;28;20054;-69
2023/09/26 01:14:04;;;;;;;11.50;4.90;;;;;;;21.98;100.00;100695.00;20813467;28;20075;-70
2023/09/26 01:24:29;;;;;;;9.50;3.60;;;;;;;21.84;100.00;100688.22;20874787;28;20549;-70
2023/09/26 01:34:51;;;;;;;11.25;4.07;;;;;;;21.73;100.00;100694.84;20855476;28;20078;-70
2023/09/26 01:45:16;;;;;;;10.73;3.60;;;;;;;21.67;100.00;100693.22;20882884;28;20049;-70
2023/09/26 01:55:40;;;;;;;9.10;3.67;;;;;;;21.65;100.00;100687.03;20832969;28;20050;-70
2023/09/26 02:06:06;;;;;;;16.25;4.22;;;;;;;21.56;100.00;100675.69;20833481;28;20140;-70
2023/09/26 02:16:28;;;;;;;9.52;3.65;;;;;;;21.42;100.00;100668.94;20849060;28;20041;-70
2023/09/26 02:26:57;;;;;;;12.65;3.42;;;;;;;21.38;100.00;100675.34;20849140;28;20437;-70
2023/09/26 02:37:19;;;;;;;11.10;3.80;;;;;;;21.30;100.00;100673.78;20870863;28;20112;-69
2023/09/26 02:47:45;;;;;;;9.00;3.60;;;;;;;21.26;100.00;100677.50;20873987;28;20049;-69
2023/09/26 02:58:07;;;;;;;11.07;3.20;;;;;;;21.16;100.00;100676.88;20884378;28;20084;-69
2023/09/26 03:08:32;;;;;;;10.73;3.80;;;;;;;21.14;100.00;100678.69;20884329;28;20037;-70
2023/09/26 03:18:57;;;;;;;11.30;3.88;;;;;;;21.06;100.00;100672.69;20870094;28;20052;-70
2023/09/26 03:29:21;;;;;;;11.77;3.33;;;;;;;21.01;100.00;100666.53;20859880;28;20110;-70
2023/09/26 03:39:48;;;;;;;13.23;3.13;;;;;;;20.96;100.00;100669.38;20858360;28;20618;-70
2023/09/26 03:50:13;;;;;;;7.53;3.05;;;;;;;20.88;100.00;100673.19;20834367;28;20539;-69
2023/09/26 04:00:35;;;;;;;8.60;3.50;;;;;;;20.80;100.00;100672.53;20845126;28;20052;-69
2023/09/26 04:10:59;;;;;;;14.80;3.50;;;;;;;20.76;100.00;100678.91;20854634;28;20055;-70
2023/09/26 04:21:22;;;;;;;7.75;2.83;;;;;;;20.78;100.00;100669.00;20799163;28;20054;-70
2023/09/26 04:31:47;;;;;;;9.05;2.75;;;;;;;20.91;100.00;100654.31;20775969;28;20520;-69
2023/09/26 04:42:09;;;;;;;10.70;3.42;;;;;;;21.17;100.00;100662.53;20767029;28;20101;-70
2023/09/26 04:52:33;;;;;;;6.32;2.65;;;;;;;21.48;100.00;100670.53;20797174;28;20045;-70
2023/09/26 05:02:56;;;;;;;10.18;2.97;;;;;;;21.80;100.00;100664.16;20820294;28;20567;-70
2023/09/26 05:13:19;;;;;;;7.35;2.45;;;;;;;22.48;100.00;100677.16;20791464;28;20060;-69
2023/09/26 05:23:42;;;;;;;7.63;2.30;;;;;;;23.32;100.00;100677.69;20879387;28;20109;-69
2023/09/26 05:34:07;;;;;;;7.05;2.10;;;;;;;24.06;100.00;100681.94;20895086;28;20053;-70
2023/09/26 05:44:30;;;;;;;13.48;2.50;;;;;;;24.97;100.00;100691.53;20862678;28;20040;-70
2023/09/26 05:54:54;;;;;;;6.30;1.90;;;;;;;25.72;100.00;100697.97;20870236;28;20080;-70
2023/09/26 06:05:17;;;;;;;6.88;2.08;;;;;;;26.51;88.50;100694.03;20879115;28;20048;-70
2023/09/26 06:15:43;;;;;;;6.68;1.75;;;;;;;27.46;74.92;100700.72;20881705;28;20550;-70
2023/09/26 06:26:05;;;;;;;6.03;1.73;;;;;;;28.42;75.11;100711.56;20890556;28;20049;-70
2023/09/26 06:36:31;;;;;;;6.30;1.95;;;;;;;29.12;70.93;100708.16;20865780;28;20147;-69
2023/09/26 06:46:54;;;;;;;7.88;1.90;;;;;;;29.60;63.68;100712.38;20897285;28;20068;-70
2023/09/26 06:57:20;;;;;;;5.78;1.60;;;;;;;30.03;59.50;100705.06;20890152;28;20057;-70
2023/09/26 07:07:42;;;;;;;6.25;1.58;;;;;;;30.10;52.38;100702.78;20884581;28;20711;-70
2023/09/26 07:18:09;;;;;;;4.43;1.83;;;;;;;30.39;48.88;100704.41;20884047;28;20103;-70
2023/09/26 07:28:32;;;;;;;6.60;2.03;;;;;;;30.70;48.98;100705.09;20881962;28;20144;-70
2023/09/26 07:38:57;;;;;;;11.57;2.05;;;;;;;31.06;48.11;100701.69;20879117;28;20551;-70
2023/09/26 07:49:19;;;;;;;5.13;1.80;;;;;;;31.51;47.84;100709.31;20854435;28;20079;-70
2023/09/26 07:59:44;;;;;;;4.75;1.83;;;;;;;31.87;44.88;100707.63;20840871;28;20084;-70
2023/09/26 08:10:08;;;;;;;5.55;2.17;;;;;;;31.89;44.35;100709.28;20841919;28;20049;-70
2023/09/26 08:20:32;;;;;;;7.97;2.15;;;;;;;31.98;43.08;100716.78;20894296;28;20052;-70
2023/09/26 08:30:56;;;;;;;6.90;1.87;;;;;;;32.18;42.39;100707.13;20878040;28;20052;-70
2023/09/26 08:41:21;;;;;;;3.03;1.58;;;;;;;32.80;41.06;100696.00;20878794;28;20055;-70
2023/09/26 08:51:43;;;;;;;11.05;2.03;;;;;;;32.80;39.04;100696.88;20962031;28;20103;-70
2023/09/26 09:02:11;;;;;;;4.20;1.60;;;;;;;32.91;41.23;100693.28;20896336;28;20045;-70
2023/09/26 09:12:33;;;;;;;6.15;2.05;;;;;;;32.93;43.31;100687.69;20865344;28;20846;-71
2023/09/26 09:23:02;;;;;;;7.45;1.92;;;;;;;33.09;43.82;100686.34;20881984;28;20072;-70
2023/09/26 09:33:27;;;;;;;6.65;1.83;;;;;;;32.96;44.26;100671.91;20883039;28;20053;-72
2023/09/26 09:43:51;;;;;;;4.80;1.60;;;;;;;32.95;44.27;100678.34;20873259;28;20077;-70
2023/09/26 09:54:17;;;;;;;7.30;1.90;;;;;;;33.02;43.44;100674.16;20882251;28;20049;-71
2023/09/26 10:04:41;;;;;;;5.82;2.00;;;;;;;32.98;43.97;100664.47;20881804;28;20045;-70
2023/09/26 10:15:04;;;;;;;5.88;1.60;;;;;;;33.25;44.60;100666.00;20859563;28;20057;-71
2023/09/26 10:25:29;;;;;;;7.55;1.92;;;;;;;33.17;46.20;100648.31;20885476;28;20049;-70
2023/09/26 10:35:52;;;;;;;3.93;1.43;;;;;;;33.05;46.17;100640.22;20870402;28;20522;-70
2023/09/26 10:46:16;;;;;;;6.55;1.65;;;;;;;32.47;47.06;100632.97;20880501;28;20053;-70
2023/09/26 10:56:47;;;;;;;3.95;1.50;;;;;;;32.26;48.63;100624.56;20845310;28;20041;-71
2023/09/26 11:07:11;;;;;;;8.05;2.10;;;;;;;32.04;46.23;100633.47;20871315;28;20045;-71
2023/09/26 11:17:34;;;;;;;6.03;1.65;;;;;;;31.85;46.13;100627.66;20872319;28;20041;-71
2023/09/26 11:27:58;;;;;;;8.23;2.00;;;;;;;31.75;47.21;100626.63;20881654;28;20099;-71
2023/09/26 11:38:20;;;;;;;6.13;1.90;;;;;;;31.40;49.29;100627.34;20873112;28;20059;-70
2023/09/26 11:48:47;;;;;;;8.52;2.08;;;;;;;31.44;51.49;100628.84;20867736;28;20053;-71
2023/09/26 11:59:09;;;;;;;6.10;1.73;;;;;;;31.21;56.33;100616.91;20880503;28;20041;-71
2023/09/26 12:09:34;;;;;;;7.22;2.13;;;;;;;31.15;58.05;100619.19;20878316;28;20103;-71
2023/09/26 12:19:57;;;;;;;5.78;1.88;;;;;;;31.00;63.39;100615.69;20886264;28;20504;-71
2023/09/26 12:30:21;;;;;;;8.32;1.70;;;;;;;30.74;70.58;100601.19;20875326;28;20048;-71
2023/09/26 12:40:43;;;;;;;4.97;1.80;;;;;;;30.49;81.36;100601.16;20879987;28;20567;-71
2023/09/26 12:51:08;;;;;;;10.65;2.10;;;;;;;30.21;90.55;100593.09;20869149;28;20436;-71
2023/09/26 13:01:30;;;;;;;7.57;2.00;;;;;;;30.06;94.10;100597.78;20887050;28;20071;-71
2023/09/26 13:11:54;;;;;;;5.43;1.63;;;;;;;29.90;94.75;100588.84;20892636;28;20053;-71
2023/09/26 13:22:17;;;;;;;6.90;2.20;;;;;;;29.77;94.72;100583.34;20891105;28;20044;-71
2023/09/26 13:32:42;;;;;;;6.70;1.80;;;;;;;29.70;93.71;100582.00;20881608;28;20076;-71
2023/09/26 13:43:05;;;;;;;7.35;2.00;;;;;;;29.52;91.41;100577.81;20881031;28;20059;-71
2023/09/26 13:53:30;;;;;;;6.07;1.88;;;;;;;29.37;91.76;100579.69;20882379;28;20042;-71
2023/09/26 14:03:53;;;;;;;5.57;1.95;;;;;;;29.14;88.35;100583.00;20860231;28;20378;-71
2023/09/26 14:14:17;;;;;;;7.90;2.10;;;;;;;28.91;90.92;100570.84;20846383;28;20045;-71
2023/09/26 14:24:40;;;;;;;9.93;2.25;;;;;;;28.67;93.77;100580.53;20781101;28;20045;-71
2023/09/26 14:35:04;;;;;;;6.50;1.98;;;;;;;28.60;89.52;100576.44;20794009;28;20056;-71
2023/09/26 14:45:27;;;;;;;8.05;2.47;;;;;;;28.36;83.20;100570.66;20806505;28;20049;-71
2023/09/26 14:55:51;;;;;;;5.55;2.00;;;;;;;28.23;85.75;100578.66;20798191;28;20108;-71
2023/09/26 15:06:14;;;;;;;7.82;2.22;;;;;;;28.04;92.71;100573.44;20801740;28;20275;-71
2023/09/26 15:16:38;;;;;;;5.75;1.95;;;;;;;27.82;96.96;100572.13;20802689;28;20073;-71
2023/09/26 15:27:00;;;;;;;6.65;1.90;;;;;;;27.66;100.00;100575.72;20814299;28;20045;-71
2023/09/26 15:37:24;;;;;;;8.05;2.35;;;;;;;27.49;100.00;100574.91;20801729;28;20094;-71
2023/09/26 15:47:47;;;;;;;8.07;2.20;;;;;;;27.29;100.00;100581.47;20801563;28;20050;-71
2023/09/26 15:58:11;;;;;;;19.02;2.70;;;;;;;27.11;100.00;100586.06;20786210;28;20048;-71
2023/09/26 16:08:33;;;;;;;10.80;2.40;;;;;;;26.88;100.00;100584.59;20793438;28;20132;-71
2023/09/26 16:18:57;;;;;;;11.85;3.28;;;;;;;26.71;100.00;100589.19;20858101;28;20061;-71
2023/09/26 16:29:20;;;;;;;14.00;3.33;;;;;;;26.62;100.00;100585.13;20871803;28;20176;-71
2023/09/26 16:39:44;;;;;;;10.00;3.58;;;;;;;26.55;100.00;100591.84;20890529;28;20069;-71
2023/09/26 16:50:07;;;;;;;14.57;4.38;;;;;;;26.47;100.00;100600.38;20867262;28;20088;-71
2023/09/26 17:00:32;;;;;;;16.15;4.22;;;;;;;26.36;100.00;100618.13;20859346;28;20432;-72
2023/09/26 17:10:55;;;;;;;11.05;3.60;;;;;;;25.94;100.00;100616.63;20895570;28;20041;-70
2023/09/26 17:21:19;;;;;;;13.93;4.00;;;;;;;25.95;100.00;100631.03;20916286;28;20108;-70
2023/09/26 17:31:43;;;;;;;12.85;4.35;;;;;;;25.91;100.00;100627.63;20888375;28;20059;-70
2023/09/26 17:42:07;;;;;;;13.93;4.07;;;;;;;25.89;100.00;100628.63;20858821;28;20471;-70
2023/09/26 17:52:31;;;;;;;11.95;3.75;;;;;;;25.87;100.00;100636.81;20876849;28;20044;-69
2023/09/26 18:02:55;;;;;;;8.88;3.42;;;;;;;25.85;100.00;100646.84;20883918;28;20052;-70
2023/09/26 18:13:17;;;;;;;32.30;17.35;;;;;;;25.73;100.00;100651.00;20901762;28;20167;-71
2023/09/26 18:23:42;;;;;;;13.00;4.18;;;;;;;25.57;100.00;100677.06;20884383;28;20485;-70
2023/09/26 18:34:05;;;;;;;11.43;4.35;;;;;;;25.32;100.00;100696.22;20845475;28;20135;-70
2023/09/26 18:44:29;;;;;;;11.95;3.80;;;;;;;25.22;100.00;100700.28;20875434;28;20052;-70
2023/09/26 18:54:52;;;;;;;10.27;2.95;;;;;;;25.25;100.00;100708.28;20878590;28;20056;-69
2023/09/26 19:05:16;;;;;;;12.13;3.88;;;;;;;25.17;100.00;100715.84;20900072;28;20111;-70
2023/09/26 19:15:38;;;;;;;13.57;3.70;;;;;;;24.94;100.00;100711.47;20874699;28;20041;-70
2023/09/26 19:26:06;;;;;;;16.55;3.30;;;;;;;25.05;100.00;100711.00;20855825;28;20053;-69
2023/09/26 19:36:30;;;;;;;10.63;4.00;;;;;;;24.67;100.00;100714.47;20885997;28;20501;-71
2023/09/26 19:46:54;;;;;;;12.80;3.75;;;;;;;24.43;100.00;100716.38;20888236;28;20064;-71
2023/09/26 19:57:17;;;;;;;11.15;4.82;;;;;;;24.62;100.00;100706.56;20900587;28;20045;-70
2023/09/26 20:07:41;;;;;;;9.82;3.35;;;;;;;24.59;100.00;100702.19;20904437;28;20053;-70
2023/09/26 20:18:04;;;;;;;7.07;3.22;;;;;;;24.42;100.00;100715.50;20872447;28;20045;-70
2023/09/26 20:28:28;;;;;;;9.45;3.75;;;;;;;24.39;100.00;100715.66;20879858;28;20584;-70
2023/09/26 20:38:51;;;;;;;11.43;3.45;;;;;;;24.19;100.00;100716.47;20872783;28;20049;-70
2023/09/26 20:49:15;;;;;;;14.48;3.75;;;;;;;24.13;100.00;100707.72;20892946;28;20060;-71
2023/09/26 20:59:38;;;;;;;12.85;4.00;;;;;;;23.68;100.00;100691.59;20924901;28;20052;-69
2023/09/26 21:10:03;;;;;;;9.82;3.90;;;;;;;23.73;100.00;100687.78;20908369;28;20045;-70
2023/09/26 21:20:26;;;;;;;14.93;4.32;;;;;;;23.55;100.00;100691.19;20887788;28;20749;-70
2023/09/26 21:30:50;;;;;;;11.82;4.72;;;;;;;23.51;100.00;100681.44;20913955;28;20124;-70
2023/09/26 21:41:12;;;;;;;8.23;3.67;;;;;;;23.40;100.00;100679.16;20889980;28;20041;-71
2023/09/26 21:51:36;;;;;;;10.68;4.68;;;;;;;23.19;100.00;100679.09;20885448;28;20057;-70
2023/09/26 22:01:59;;;;;;;11.60;3.88;;;;;;;23.25;100.00;100697.69;20888041;28;20052;-69
2023/09/26 22:12:24;;;;;;;10.70;3.67;;;;;;;23.20;100.00;100679.03;20875955;28;20059;-69
2023/09/26 22:22:47;;;;;;;8.88;4.25;;;;;;;23.10;100.00;100680.31;20879987;28;20049;-70
2023/09/26 22:33:12;;;;;;;13.57;4.43;;;;;;;22.87;100.00;100667.69;20898017;28;20114;-70
2023/09/26 22:43:35;;;;;;;13.23;4.50;;;;;;;22.82;100.00;100668.81;20882977;28;20150;-70
2023/09/26 22:53:59;;;;;;;12.18;4.20;;;;;;;22.89;100.00;100697.25;20878405;28;20133;-70
2023/09/26 23:04:21;;;;;;;13.63;3.97;;;;;;;22.60;100.00;100679.41;20883949;28;20040;-70
2023/09/26 23:14:45;;;;;;;14.02;4.25;;;;;;;22.53;100.00;100657.22;20906421;28;20103;-70
2023/09/26 23:25:11;;;;;;;11.25;3.85;;;;;;;22.61;100.00;100667.72;20886788;28;20530;-70
2023/09/26 23:35:35;;;;;;;9.63;5.03;;;;;;;22.25;100.00;100670.75;20913912;28;20049;-69
2023/09/26 23:45:57;;;;;;;9.85;3.40;;;;;;;22.35;100.00;100657.88;20875998;28;20041;-70
2023/09/26 23:56:22;;;;;;;11.63;4.00;;;;;;;22.08;100.00;100665.06;20876303;28;20060;-71
